Terminal Aerodrome Forecast
Issued by NWS

Home | Current Version | Previous Version | Text Only | Print | Product List | Glossary On
Versions: 1 2 3 4 5 6 7 8 9 10 11 12 13 14 15 16 17 18 19 20 21 22 23 24 25 26 27 28 29 30 31 32 33 34 35
000
FTUS43 KDLH 121328 AAA
TAFBRD
TAF AMD
KBRD 121328Z 1213/1312 00000KT P6SM BKN014 OVC080
     FM121400 24006KT 5SM BR VCSH BKN016
     FM121800 22006KT P6SM VCSH BKN020
     FM122300 15004KT P6SM VCSH BKN012 OVC025
     FM130900 15005KT 5SM BR VCSH OVC008=

USA.gov is the U.S. government's official web portal to all federal, state and local government web resources and services.